sensor_id;sensor_type;location;lat;lon;timestamp;temperature;humidity
18577;DHT22;9418;52.694;13.294;2023-10-09T00:01:01;9.80;99.90
18577;DHT22;9418;52.694;13.294;2023-10-09T00:03:35;9.80;91.90
18577;DHT22;9418;52.694;13.294;2023-10-09T00:06:03;9.80;77.00
18577;DHT22;9418;52.694;13.294;2023-10-09T00:08:31;9.70;64.40
18577;DHT22;9418;52.694;13.294;2023-10-09T00:11:01;9.60;59.70
18577;DHT22;9418;52.694;13.294;2023-10-09T00:13:42;9.60;45.60
18577;DHT22;9418;52.694;13.294;2023-10-09T00:16:16;9.50;36.50
18577;DHT22;9418;52.694;13.294;2023-10-09T00:18:48;9.40;26.80
18577;DHT22;9418;52.694;13.294;2023-10-09T00:21:14;9.40;83.50
18577;DHT22;9418;52.694;13.294;2023-10-09T00:23:42;9.30;99.90
18577;DHT22;9418;52.694;13.294;2023-10-09T00:26:09;9.40;99.90
18577;DHT22;9418;52.694;13.294;2023-10-09T00:28:42;9.30;99.90
18577;DHT22;9418;52.694;13.294;2023-10-09T00:31:09;9.30;99.90
18577;DHT22;9418;52.694;13.294;2023-10-09T00:33:40;9.30;99.90
18577;DHT22;9418;52.694;13.294;2023-10-09T00:36:07;9.30;99.90
18577;DHT22;9418;52.694;13.294;2023-10-09T00:38:35;9.20;99.90
18577;DHT22;9418;52.694;13.294;2023-10-09T00:41:05;9.20;99.90
18577;DHT22;9418;52.694;13.294;2023-10-09T00:43:37;9.20;99.90
18577;DHT22;9418;52.694;13.294;2023-10-09T00:46:08;9.20;99.90
18577;DHT22;9418;52.694;13.294;2023-10-09T00:48:42;9.10;99.90
18577;DHT22;9418;52.694;13.294;2023-10-09T00:51:13;9.10;99.90
18577;DHT22;9418;52.694;13.294;2023-10-09T00:53:44;9.10;99.90
18577;DHT22;9418;52.694;13.294;2023-10-09T00:56:15;9.10;99.90
18577;DHT22;9418;52.694;13.294;2023-10-09T00:58:47;9.10;99.90
18577;DHT22;9418;52.694;13.294;2023-10-09T01:01:20;9.10;99.90
18577;DHT22;9418;52.694;13.294;2023-10-09T01:03:52;9.10;99.90
18577;DHT22;9418;52.694;13.294;2023-10-09T01:06:18;9.10;99.90
18577;DHT22;9418;52.694;13.294;2023-10-09T01:08:47;9.10;99.90
18577;DHT22;9418;52.694;13.294;2023-10-09T01:11:23;9.10;99.90
18577;DHT22;9418;52.694;13.294;2023-10-09T01:13:55;9.20;99.90
18577;DHT22;9418;52.694;13.294;2023-10-09T01:16:38;9.10;99.90
18577;DHT22;9418;52.694;13.294;2023-10-09T01:19:06;9.10;99.90
18577;DHT22;9418;52.694;13.294;2023-10-09T01:21:38;9.10;99.90
18577;DHT22;9418;52.694;13.294;2023-10-09T01:24:07;9.10;99.90
18577;DHT22;9418;52.694;13.294;2023-10-09T01:26:35;9.10;99.90
18577;DHT22;9418;52.694;13.294;2023-10-09T01:29:09;9.10;99.90
18577;DHT22;9418;52.694;13.294;2023-10-09T01:31:39;9.10;99.90
18577;DHT22;9418;52.694;13.294;2023-10-09T01:34:09;9.10;99.90
18577;DHT22;9418;52.694;13.294;2023-10-09T01:36:38;9.10;99.90
18577;DHT22;9418;52.694;13.294;2023-10-09T01:39:06;9.10;99.90
18577;DHT22;9418;52.694;13.294;2023-10-09T01:41:47;9.10;99.90
18577;DHT22;9418;52.694;13.294;2023-10-09T01:44:14;9.00;99.90
18577;DHT22;9418;52.694;13.294;2023-10-09T01:46:41;9.00;99.90
18577;DHT22;9418;52.694;13.294;2023-10-09T01:49:08;9.10;99.90
18577;DHT22;9418;52.694;13.294;2023-10-09T01:51:42;9.10;99.90
18577;DHT22;9418;52.694;13.294;2023-10-09T01:54:10;9.10;99.90
18577;DHT22;9418;52.694;13.294;2023-10-09T01:56:53;9.00;99.90
18577;DHT22;9418;52.694;13.294;2023-10-09T01:59:21;9.10;99.90
18577;DHT22;9418;52.694;13.294;2023-10-09T02:01:48;9.10;99.90
18577;DHT22;9418;52.694;13.294;2023-10-09T02:04:15;9.10;99.90
18577;DHT22;9418;52.694;13.294;2023-10-09T02:06:45;9.00;99.90
18577;DHT22;9418;52.694;13.294;2023-10-09T02:09:17;9.10;99.90
18577;DHT22;9418;52.694;13.294;2023-10-09T02:11:48;9.10;99.90
18577;DHT22;9418;52.694;13.294;2023-10-09T02:14:16;9.10;99.90
18577;DHT22;9418;52.694;13.294;2023-10-09T02:16:46;9.10;99.90
18577;DHT22;9418;52.694;13.294;2023-10-09T02:19:29;9.10;99.90
18577;DHT22;9418;52.694;13.294;2023-10-09T02:21:59;9.10;99.90
18577;DHT22;9418;52.694;13.294;2023-10-09T02:24:28;9.10;99.90
18577;DHT22;9418;52.694;13.294;2023-10-09T02:27:09;9.10;99.90
18577;DHT22;9418;52.694;13.294;2023-10-09T02:29:41;9.10;99.90
18577;DHT22;9418;52.694;13.294;2023-10-09T02:32:07;9.10;99.90
18577;DHT22;9418;52.694;13.294;2023-10-09T02:34:49;9.10;99.90
18577;DHT22;9418;52.694;13.294;2023-10-09T02:37:19;9.10;99.90
18577;DHT22;9418;52.694;13.294;2023-10-09T02:39:49;9.10;99.90
18577;DHT22;9418;52.694;13.294;2023-10-09T02:42:18;9.10;99.90
18577;DHT22;9418;52.694;13.294;2023-10-09T02:44:51;9.10;99.90
18577;DHT22;9418;52.694;13.294;2023-10-09T02:47:18;9.10;99.90
18577;DHT22;9418;52.694;13.294;2023-10-09T02:49:50;9.20;99.90
18577;DHT22;9418;52.694;13.294;2023-10-09T02:52:17;9.20;99.90
18577;DHT22;9418;52.694;13.294;2023-10-09T02:54:45;9.20;99.90
18577;DHT22;9418;52.694;13.294;2023-10-09T02:57:14;9.20;99.90
18577;DHT22;9418;52.694;13.294;2023-10-09T02:59:47;9.20;99.90
18577;DHT22;9418;52.694;13.294;2023-10-09T03:02:17;9.20;99.90
18577;DHT22;9418;52.694;13.294;2023-10-09T03:04:43;9.10;99.90
18577;DHT22;9418;52.694;13.294;2023-10-09T03:07:10;9.10;99.90
18577;DHT22;9418;52.694;13.294;2023-10-09T03:09:39;9.10;99.90
18577;DHT22;9418;52.694;13.294;2023-10-09T03:12:06;9.10;99.90
18577;DHT22;9418;52.694;13.294;2023-10-09T03:14:37;9.10;99.90
18577;DHT22;9418;52.694;13.294;2023-10-09T03:17:05;9.10;99.90
18577;DHT22;9418;52.694;13.294;2023-10-09T03:19:36;9.10;99.90
18577;DHT22;9418;52.694;13.294;2023-10-09T03:22:03;9.00;99.90
18577;DHT22;9418;52.694;13.294;2023-10-09T03:24:30;9.10;99.90
18577;DHT22;9418;52.694;13.294;2023-10-09T03:26:57;9.10;99.90
18577;DHT22;9418;52.694;13.294;2023-10-09T03:29:24;9.00;99.90
18577;DHT22;9418;52.694;13.294;2023-10-09T03:31:54;9.10;99.90
18577;DHT22;9418;52.694;13.294;2023-10-09T03:34:22;9.00;99.90
18577;DHT22;9418;52.694;13.294;2023-10-09T03:36:49;9.10;99.90
18577;DHT22;9418;52.694;13.294;2023-10-09T03:39:25;9.10;99.90
18577;DHT22;9418;52.694;13.294;2023-10-09T03:41:59;9.10;99.90
18577;DHT22;9418;52.694;13.294;2023-10-09T03:44:30;9.10;99.90
18577;DHT22;9418;52.694;13.294;2023-10-09T03:47:00;9.10;99.90
18577;DHT22;9418;52.694;13.294;2023-10-09T03:49:28;9.10;99.90
18577;DHT22;9418;52.694;13.294;2023-10-09T03:51:55;9.10;99.90
18577;DHT22;9418;52.694;13.294;2023-10-09T03:54:21;9.10;99.90
18577;DHT22;9418;52.694;13.294;2023-10-09T03:56:49;9.10;99.90
18577;DHT22;9418;52.694;13.294;2023-10-09T03:59:16;9.10;99.90
18577;DHT22;9418;52.694;13.294;2023-10-09T04:01:45;9.20;99.90
18577;DHT22;9418;52.694;13.294;2023-10-09T04:04:15;9.10;99.90
18577;DHT22;9418;52.694;13.294;2023-10-09T04:06:41;9.10;99.90
18577;DHT22;9418;52.694;13.294;2023-10-09T04:09:09;9.10;99.90
18577;DHT22;9418;52.694;13.294;2023-10-09T04:11:54;9.10;99.90
18577;DHT22;9418;52.694;13.294;2023-10-09T04:14:39;9.10;99.90
18577;DHT22;9418;52.694;13.294;2023-10-09T04:17:14;9.10;99.90
18577;DHT22;9418;52.694;13.294;2023-10-09T04:19:56;9.00;99.90
18577;DHT22;9418;52.694;13.294;2023-10-09T04:22:37;9.00;99.90
18577;DHT22;9418;52.694;13.294;2023-10-09T04:25:05;9.00;99.90
18577;DHT22;9418;52.694;13.294;2023-10-09T04:27:33;9.10;99.90
18577;DHT22;9418;52.694;13.294;2023-10-09T04:30:03;9.10;99.90
18577;DHT22;9418;52.694;13.294;2023-10-09T04:32:32;9.10;99.90
18577;DHT22;9418;52.694;13.294;2023-10-09T04:35:01;9.10;99.90
18577;DHT22;9418;52.694;13.294;2023-10-09T04:37:41;9.10;99.90
18577;DHT22;9418;52.694;13.294;2023-10-09T04:40:10;9.10;99.90
18577;DHT22;9418;52.694;13.294;2023-10-09T04:42:37;9.10;99.90
18577;DHT22;9418;52.694;13.294;2023-10-09T04:45:05;9.20;99.90
18577;DHT22;9418;52.694;13.294;2023-10-09T04:48:12;9.20;99.90
18577;DHT22;9418;52.694;13.294;2023-10-09T04:50:59;9.10;99.90
18577;DHT22;9418;52.694;13.294;2023-10-09T04:53:43;9.10;99.90
18577;DHT22;9418;52.694;13.294;2023-10-09T04:56:15;9.10;99.90
18577;DHT22;9418;52.694;13.294;2023-10-09T04:58:42;9.10;99.90
18577;DHT22;9418;52.694;13.294;2023-10-09T05:01:11;9.10;99.90
18577;DHT22;9418;52.694;13.294;2023-10-09T05:04:01;9.10;99.90
18577;DHT22;9418;52.694;13.294;2023-10-09T05:06:31;9.10;99.90
18577;DHT22;9418;52.694;13.294;2023-10-09T05:09:20;9.10;99.90
18577;DHT22;9418;52.694;13.294;2023-10-09T05:11:47;9.10;99.90
18577;DHT22;9418;52.694;13.294;2023-10-09T05:14:40;9.10;99.90
18577;DHT22;9418;52.694;13.294;2023-10-09T05:17:11;9.10;99.90
18577;DHT22;9418;52.694;13.294;2023-10-09T05:19:43;9.10;99.90
18577;DHT22;9418;52.694;13.294;2023-10-09T05:22:21;9.10;99.90
18577;DHT22;9418;52.694;13.294;2023-10-09T05:25:03;9.10;99.90
18577;DHT22;9418;52.694;13.294;2023-10-09T05:27:41;9.10;99.90
18577;DHT22;9418;52.694;13.294;2023-10-09T05:30:17;9.10;99.90
18577;DHT22;9418;52.694;13.294;2023-10-09T05:32:53;9.10;99.90
18577;DHT22;9418;52.694;13.294;2023-10-09T05:35:24;9.10;99.90
18577;DHT22;9418;52.694;13.294;2023-10-09T05:38:09;9.10;99.90
18577;DHT22;9418;52.694;13.294;2023-10-09T05:40:49;9.10;99.90
18577;DHT22;9418;52.694;13.294;2023-10-09T05:43:19;9.10;99.90
18577;DHT22;9418;52.694;13.294;2023-10-09T05:46:00;9.10;99.90
18577;DHT22;9418;52.694;13.294;2023-10-09T05:48:40;9.20;99.90
18577;DHT22;9418;52.694;13.294;2023-10-09T05:51:20;9.10;99.90
18577;DHT22;9418;52.694;13.294;2023-10-09T05:54:02;9.10;99.90
18577;DHT22;9418;52.694;13.294;2023-10-09T05:56:49;9.10;99.90
18577;DHT22;9418;52.694;13.294;2023-10-09T05:59:34;9.20;99.90
18577;DHT22;9418;52.694;13.294;2023-10-09T06:02:18;9.10;99.90
18577;DHT22;9418;52.694;13.294;2023-10-09T06:05:08;9.10;99.90
18577;DHT22;9418;52.694;13.294;2023-10-09T06:08:04;9.10;99.90
18577;DHT22;9418;52.694;13.294;2023-10-09T06:10:33;9.20;99.90
18577;DHT22;9418;52.694;13.294;2023-10-09T06:13:09;9.20;99.90
18577;DHT22;9418;52.694;13.294;2023-10-09T06:15:49;9.10;99.90
18577;DHT22;9418;52.694;13.294;2023-10-09T06:18:34;9.20;99.90
18577;DHT22;9418;52.694;13.294;2023-10-09T06:21:00;9.20;99.90
18577;DHT22;9418;52.694;13.294;2023-10-09T06:23:35;9.20;99.90
18577;DHT22;9418;52.694;13.294;2023-10-09T06:26:35;9.20;99.90
18577;DHT22;9418;52.694;13.294;2023-10-09T06:29:02;9.20;99.90
18577;DHT22;9418;52.694;13.294;2023-10-09T06:31:41;9.30;99.90
18577;DHT22;9418;52.694;13.294;2023-10-09T06:34:21;9.30;99.90
18577;DHT22;9418;52.694;13.294;2023-10-09T06:36:58;9.30;99.90
18577;DHT22;9418;52.694;13.294;2023-10-09T06:39:30;9.30;99.90
18577;DHT22;9418;52.694;13.294;2023-10-09T06:42:16;9.30;99.90
18577;DHT22;9418;52.694;13.294;2023-10-09T06:45:00;9.40;99.90
18577;DHT22;9418;52.694;13.294;2023-10-09T06:47:31;9.50;99.90
18577;DHT22;9418;52.694;13.294;2023-10-09T06:50:07;9.40;99.90
18577;DHT22;9418;52.694;13.294;2023-10-09T06:52:51;9.50;99.90
18577;DHT22;9418;52.694;13.294;2023-10-09T06:55:23;9.50;99.90
18577;DHT22;9418;52.694;13.294;2023-10-09T06:58:00;9.50;99.90
18577;DHT22;9418;52.694;13.294;2023-10-09T07:00:27;9.60;99.90
18577;DHT22;9418;52.694;13.294;2023-10-09T07:03:11;9.60;99.90
18577;DHT22;9418;52.694;13.294;2023-10-09T07:05:38;9.60;99.90
18577;DHT22;9418;52.694;13.294;2023-10-09T07:08:13;9.50;99.90
18577;DHT22;9418;52.694;13.294;2023-10-09T07:11:07;9.60;99.90
18577;DHT22;9418;52.694;13.294;2023-10-09T07:14:10;9.70;99.90
18577;DHT22;9418;52.694;13.294;2023-10-09T07:16:55;9.70;99.90
18577;DHT22;9418;52.694;13.294;2023-10-09T07:19:23;9.70;99.90
18577;DHT22;9418;52.694;13.294;2023-10-09T07:22:01;9.70;99.90
18577;DHT22;9418;52.694;13.294;2023-10-09T07:24:28;9.70;99.90
18577;DHT22;9418;52.694;13.294;2023-10-09T07:27:05;9.80;99.90
18577;DHT22;9418;52.694;13.294;2023-10-09T07:29:39;9.80;99.90
18577;DHT22;9418;52.694;13.294;2023-10-09T07:32:14;9.80;99.90
18577;DHT22;9418;52.694;13.294;2023-10-09T07:34:46;9.80;99.90
18577;DHT22;9418;52.694;13.294;2023-10-09T07:37:25;9.70;99.90
18577;DHT22;9418;52.694;13.294;2023-10-09T07:39:56;9.80;99.90
18577;DHT22;9418;52.694;13.294;2023-10-09T07:42:25;9.80;99.90
18577;DHT22;9418;52.694;13.294;2023-10-09T07:45:09;9.70;99.90
18577;DHT22;9418;52.694;13.294;2023-10-09T07:47:58;9.80;99.90
18577;DHT22;9418;52.694;13.294;2023-10-09T07:50:35;9.80;99.90
18577;DHT22;9418;52.694;13.294;2023-10-09T07:53:06;9.80;99.90
18577;DHT22;9418;52.694;13.294;2023-10-09T07:55:43;9.80;99.90
18577;DHT22;9418;52.694;13.294;2023-10-09T07:58:21;9.90;99.90
18577;DHT22;9418;52.694;13.294;2023-10-09T08:00:51;9.90;99.90
18577;DHT22;9418;52.694;13.294;2023-10-09T08:03:33;9.80;99.90
18577;DHT22;9418;52.694;13.294;2023-10-09T08:06:01;9.80;99.90
18577;DHT22;9418;52.694;13.294;2023-10-09T08:08:53;9.90;99.90
18577;DHT22;9418;52.694;13.294;2023-10-09T08:11:34;9.90;99.90
18577;DHT22;9418;52.694;13.294;2023-10-09T08:14:25;9.90;99.90
18577;DHT22;9418;52.694;13.294;2023-10-09T08:17:05;9.90;99.90
18577;DHT22;9418;52.694;13.294;2023-10-09T08:19:39;9.90;99.90
18577;DHT22;9418;52.694;13.294;2023-10-09T08:22:21;9.90;99.90
18577;DHT22;9418;52.694;13.294;2023-10-09T08:25:08;9.90;99.90
18577;DHT22;9418;52.694;13.294;2023-10-09T08:27:52;10.00;99.90
18577;DHT22;9418;52.694;13.294;2023-10-09T08:30:22;10.00;99.90
18577;DHT22;9418;52.694;13.294;2023-10-09T08:33:06;10.00;99.90
18577;DHT22;9418;52.694;13.294;2023-10-09T08:35:55;9.90;99.90
18577;DHT22;9418;52.694;13.294;2023-10-09T08:38:27;9.90;99.90
18577;DHT22;9418;52.694;13.294;2023-10-09T08:41:06;10.00;99.90
18577;DHT22;9418;52.694;13.294;2023-10-09T08:43:43;9.90;99.90
18577;DHT22;9418;52.694;13.294;2023-10-09T08:46:20;10.00;99.90
18577;DHT22;9418;52.694;13.294;2023-10-09T08:48:48;10.00;99.90
18577;DHT22;9418;52.694;13.294;2023-10-09T08:51:17;10.00;99.90
18577;DHT22;9418;52.694;13.294;2023-10-09T08:53:44;10.10;99.90
18577;DHT22;9418;52.694;13.294;2023-10-09T08:56:12;10.10;99.90
18577;DHT22;9418;52.694;13.294;2023-10-09T08:58:40;10.10;99.90
18577;DHT22;9418;52.694;13.294;2023-10-09T09:01:07;10.20;99.90
18577;DHT22;9418;52.694;13.294;2023-10-09T09:03:41;10.40;99.90
18577;DHT22;9418;52.694;13.294;2023-10-09T09:06:10;10.40;99.90
18577;DHT22;9418;52.694;13.294;2023-10-09T09:08:37;10.40;99.90
18577;DHT22;9418;52.694;13.294;2023-10-09T09:11:07;10.40;99.90
18577;DHT22;9418;52.694;13.294;2023-10-09T09:13:39;10.50;99.90
18577;DHT22;9418;52.694;13.294;2023-10-09T09:16:14;10.50;99.90
18577;DHT22;9418;52.694;13.294;2023-10-09T09:18:51;10.50;99.90
18577;DHT22;9418;52.694;13.294;2023-10-09T09:21:22;10.50;99.90
18577;DHT22;9418;52.694;13.294;2023-10-09T09:23:56;10.40;99.90
18577;DHT22;9418;52.694;13.294;2023-10-09T09:26:37;10.40;99.90
18577;DHT22;9418;52.694;13.294;2023-10-09T09:29:05;10.40;99.90
18577;DHT22;9418;52.694;13.294;2023-10-09T09:31:32;10.50;99.90
18577;DHT22;9418;52.694;13.294;2023-10-09T09:34:05;10.50;99.90
18577;DHT22;9418;52.694;13.294;2023-10-09T09:36:53;10.50;99.90
18577;DHT22;9418;52.694;13.294;2023-10-09T09:39:24;10.50;99.90
18577;DHT22;9418;52.694;13.294;2023-10-09T09:41:55;10.50;99.90
18577;DHT22;9418;52.694;13.294;2023-10-09T09:44:30;10.60;99.90
18577;DHT22;9418;52.694;13.294;2023-10-09T09:46:59;10.60;99.90
18577;DHT22;9418;52.694;13.294;2023-10-09T09:49:28;10.60;99.90
18577;DHT22;9418;52.694;13.294;2023-10-09T09:52:00;10.60;99.90
18577;DHT22;9418;52.694;13.294;2023-10-09T09:54:28;10.60;99.90
18577;DHT22;9418;52.694;13.294;2023-10-09T09:56:59;10.60;99.90
18577;DHT22;9418;52.694;13.294;2023-10-09T09:59:40;10.60;99.90
18577;DHT22;9418;52.694;13.294;2023-10-09T10:02:19;10.60;99.90
18577;DHT22;9418;52.694;13.294;2023-10-09T10:04:52;10.60;99.90
18577;DHT22;9418;52.694;13.294;2023-10-09T10:07:23;10.70;99.90
18577;DHT22;9418;52.694;13.294;2023-10-09T10:09:51;10.70;99.90
18577;DHT22;9418;52.694;13.294;2023-10-09T10:16:00;10.80;99.90
18577;DHT22;9418;52.694;13.294;2023-10-09T10:18:31;10.80;99.90
18577;DHT22;9418;52.694;13.294;2023-10-09T10:21:14;10.90;99.90
18577;DHT22;9418;52.694;13.294;2023-10-09T10:23:43;10.90;99.90
18577;DHT22;9418;52.694;13.294;2023-10-09T10:26:19;11.00;99.90
18577;DHT22;9418;52.694;13.294;2023-10-09T10:29:14;11.10;99.90
18577;DHT22;9418;52.694;13.294;2023-10-09T10:31:58;11.10;99.90
18577;DHT22;9418;52.694;13.294;2023-10-09T10:34:26;11.20;99.90
18577;DHT22;9418;52.694;13.294;2023-10-09T10:36:54;11.20;99.90
18577;DHT22;9418;52.694;13.294;2023-10-09T10:39:24;11.30;99.90
18577;DHT22;9418;52.694;13.294;2023-10-09T10:42:08;11.30;99.90
18577;DHT22;9418;52.694;13.294;2023-10-09T10:44:40;11.30;99.90
18577;DHT22;9418;52.694;13.294;2023-10-09T10:47:11;11.30;99.90
18577;DHT22;9418;52.694;13.294;2023-10-09T10:49:51;11.20;24.90
18577;DHT22;9418;52.694;13.294;2023-10-09T10:52:25;11.10;28.50
18577;DHT22;9418;52.694;13.294;2023-10-09T10:55:08;11.10;20.90
18577;DHT22;9418;52.694;13.294;2023-10-09T10:57:57;11.20;99.90
18577;DHT22;9418;52.694;13.294;2023-10-09T11:00:26;11.30;99.90
18577;DHT22;9418;52.694;13.294;2023-10-09T11:03:17;11.40;99.90
18577;DHT22;9418;52.694;13.294;2023-10-09T11:05:49;11.30;22.80
18577;DHT22;9418;52.694;13.294;2023-10-09T11:08:18;11.30;21.60
18577;DHT22;9418;52.694;13.294;2023-10-09T11:10:50;11.30;32.80
18577;DHT22;9418;52.694;13.294;2023-10-09T11:13:21;11.30;32.30
18577;DHT22;9418;52.694;13.294;2023-10-09T11:15:58;11.30;34.20
18577;DHT22;9418;52.694;13.294;2023-10-09T11:18:40;11.30;40.60
18577;DHT22;9418;52.694;13.294;2023-10-09T11:21:13;11.40;35.50
18577;DHT22;9418;52.694;13.294;2023-10-09T11:24:01;11.60;36.90
18577;DHT22;9418;52.694;13.294;2023-10-09T11:26:43;11.70;42.40
18577;DHT22;9418;52.694;13.294;2023-10-09T11:29:19;11.70;53.70
18577;DHT22;9418;52.694;13.294;2023-10-09T11:31:58;11.80;62.30
18577;DHT22;9418;52.694;13.294;2023-10-09T11:34:25;11.90;54.10
18577;DHT22;9418;52.694;13.294;2023-10-09T11:36:59;12.00;59.50
18577;DHT22;9418;52.694;13.294;2023-10-09T11:39:29;12.00;57.90
18577;DHT22;9418;52.694;13.294;2023-10-09T11:42:07;11.90;64.80
18577;DHT22;9418;52.694;13.294;2023-10-09T11:44:38;11.80;71.00
18577;DHT22;9418;52.694;13.294;2023-10-09T11:47:06;11.70;77.50
18577;DHT22;9418;52.694;13.294;2023-10-09T11:49:58;11.70;75.40
18577;DHT22;9418;52.694;13.294;2023-10-09T11:52:55;11.70;65.40
18577;DHT22;9418;52.694;13.294;2023-10-09T11:55:41;11.80;50.40
18577;DHT22;9418;52.694;13.294;2023-10-09T11:58:08;11.90;52.40
18577;DHT22;9418;52.694;13.294;2023-10-09T12:00:34;11.90;57.50
18577;DHT22;9418;52.694;13.294;2023-10-09T12:03:11;11.90;58.00
18577;DHT22;9418;52.694;13.294;2023-10-09T12:05:38;11.90;63.50
18577;DHT22;9418;52.694;13.294;2023-10-09T12:08:08;12.20;62.90
18577;DHT22;9418;52.694;13.294;2023-10-09T12:10:34;12.30;66.00
18577;DHT22;9418;52.694;13.294;2023-10-09T12:13:06;12.20;82.10
18577;DHT22;9418;52.694;13.294;2023-10-09T12:15:33;12.20;99.90
18577;DHT22;9418;52.694;13.294;2023-10-09T12:18:04;12.30;97.90
18577;DHT22;9418;52.694;13.294;2023-10-09T12:20:32;12.10;99.90
18577;DHT22;9418;52.694;13.294;2023-10-09T12:23:02;12.10;98.90
18577;DHT22;9418;52.694;13.294;2023-10-09T12:25:30;12.10;96.10
18577;DHT22;9418;52.694;13.294;2023-10-09T12:27:57;12.00;99.90
18577;DHT22;9418;52.694;13.294;2023-10-09T12:30:28;11.90;99.40
18577;DHT22;9418;52.694;13.294;2023-10-09T12:32:55;12.00;83.70
18577;DHT22;9418;52.694;13.294;2023-10-09T12:35:23;11.90;99.90
18577;DHT22;9418;52.694;13.294;2023-10-09T12:37:51;12.00;97.70
18577;DHT22;9418;52.694;13.294;2023-10-09T12:40:17;12.00;92.80
18577;DHT22;9418;52.694;13.294;2023-10-09T12:42:50;12.00;90.10
18577;DHT22;9418;52.694;13.294;2023-10-09T12:45:18;12.00;82.30
18577;DHT22;9418;52.694;13.294;2023-10-09T12:47:53;12.00;71.50
18577;DHT22;9418;52.694;13.294;2023-10-09T12:50:24;12.00;68.60
18577;DHT22;9418;52.694;13.294;2023-10-09T12:52:55;12.10;65.60
18577;DHT22;9418;52.694;13.294;2023-10-09T12:55:21;12.10;56.40
18577;DHT22;9418;52.694;13.294;2023-10-09T12:57:57;12.10;74.90
18577;DHT22;9418;52.694;13.294;2023-10-09T13:00:26;12.00;79.90
18577;DHT22;9418;52.694;13.294;2023-10-09T13:02:54;12.00;83.60
18577;DHT22;9418;52.694;13.294;2023-10-09T13:05:20;11.90;92.00
18577;DHT22;9418;52.694;13.294;2023-10-09T13:07:51;12.00;88.90
18577;DHT22;9418;52.694;13.294;2023-10-09T13:10:18;12.00;92.20
18577;DHT22;9418;52.694;13.294;2023-10-09T13:12:45;12.10;87.30
18577;DHT22;9418;52.694;13.294;2023-10-09T13:15:11;12.10;75.30
18577;DHT22;9418;52.694;13.294;2023-10-09T13:17:39;12.10;82.90
18577;DHT22;9418;52.694;13.294;2023-10-09T13:20:08;12.10;92.30
18577;DHT22;9418;52.694;13.294;2023-10-09T13:22:39;12.10;90.20
18577;DHT22;9418;52.694;13.294;2023-10-09T13:25:07;12.10;86.30
18577;DHT22;9418;52.694;13.294;2023-10-09T13:27:40;12.10;93.10
18577;DHT22;9418;52.694;13.294;2023-10-09T13:30:07;12.10;90.60
18577;DHT22;9418;52.694;13.294;2023-10-09T13:32:46;12.10;95.10
18577;DHT22;9418;52.694;13.294;2023-10-09T13:35:16;12.10;99.90
18577;DHT22;9418;52.694;13.294;2023-10-09T13:37:43;12.00;96.90
18577;DHT22;9418;52.694;13.294;2023-10-09T13:40:20;12.00;88.20
18577;DHT22;9418;52.694;13.294;2023-10-09T13:42:53;12.10;92.00
18577;DHT22;9418;52.694;13.294;2023-10-09T13:45:19;12.00;90.40
18577;DHT22;9418;52.694;13.294;2023-10-09T13:47:52;12.10;86.30
18577;DHT22;9418;52.694;13.294;2023-10-09T13:50:23;12.10;69.70
18577;DHT22;9418;52.694;13.294;2023-10-09T13:52:55;12.20;60.00
18577;DHT22;9418;52.694;13.294;2023-10-09T13:55:21;12.10;70.60
18577;DHT22;9418;52.694;13.294;2023-10-09T13:57:49;12.00;77.40
18577;DHT22;9418;52.694;13.294;2023-10-09T14:00:16;12.00;71.60
18577;DHT22;9418;52.694;13.294;2023-10-09T14:02:57;12.00;70.00
18577;DHT22;9418;52.694;13.294;2023-10-09T14:05:27;12.10;63.60
18577;DHT22;9418;52.694;13.294;2023-10-09T14:07:54;12.00;79.30
18577;DHT22;9418;52.694;13.294;2023-10-09T14:10:25;12.00;70.30
18577;DHT22;9418;52.694;13.294;2023-10-09T14:12:55;12.00;71.20
18577;DHT22;9418;52.694;13.294;2023-10-09T14:15:22;12.00;73.80
18577;DHT22;9418;52.694;13.294;2023-10-09T14:17:49;12.00;72.80
18577;DHT22;9418;52.694;13.294;2023-10-09T14:20:21;12.00;73.60
18577;DHT22;9418;52.694;13.294;2023-10-09T14:22:58;12.00;73.40
18577;DHT22;9418;52.694;13.294;2023-10-09T14:25:32;12.10;67.10
18577;DHT22;9418;52.694;13.294;2023-10-09T14:27:59;12.00;74.60
18577;DHT22;9418;52.694;13.294;2023-10-09T14:30:25;12.00;77.50
18577;DHT22;9418;52.694;13.294;2023-10-09T14:32:58;12.00;66.70
18577;DHT22;9418;52.694;13.294;2023-10-09T14:35:27;11.90;61.90
18577;DHT22;9418;52.694;13.294;2023-10-09T14:37:55;12.00;62.50
18577;DHT22;9418;52.694;13.294;2023-10-09T14:40:23;11.90;65.10
18577;DHT22;9418;52.694;13.294;2023-10-09T14:42:57;11.90;66.80
18577;DHT22;9418;52.694;13.294;2023-10-09T14:45:24;11.80;58.80
18577;DHT22;9418;52.694;13.294;2023-10-09T14:47:51;11.80;55.30
18577;DHT22;9418;52.694;13.294;2023-10-09T14:50:19;11.80;52.00
18577;DHT22;9418;52.694;13.294;2023-10-09T14:52:47;11.80;52.10
18577;DHT22;9418;52.694;13.294;2023-10-09T14:55:16;11.80;53.80
18577;DHT22;9418;52.694;13.294;2023-10-09T14:57:47;11.80;55.00
18577;DHT22;9418;52.694;13.294;2023-10-09T15:00:15;11.80;52.90
18577;DHT22;9418;52.694;13.294;2023-10-09T15:02:48;11.80;48.30
18577;DHT22;9418;52.694;13.294;2023-10-09T15:05:15;11.70;51.10
18577;DHT22;9418;52.694;13.294;2023-10-09T15:07:42;11.70;45.10
18577;DHT22;9418;52.694;13.294;2023-10-09T15:10:09;11.70;45.60
18577;DHT22;9418;52.694;13.294;2023-10-09T15:12:36;11.70;47.80
18577;DHT22;9418;52.694;13.294;2023-10-09T15:15:10;11.70;50.40
18577;DHT22;9418;52.694;13.294;2023-10-09T15:17:39;11.70;51.60
18577;DHT22;9418;52.694;13.294;2023-10-09T15:20:10;11.60;46.10
18577;DHT22;9418;52.694;13.294;2023-10-09T15:22:39;11.60;46.90
18577;DHT22;9418;52.694;13.294;2023-10-09T15:25:06;11.60;43.90
18577;DHT22;9418;52.694;13.294;2023-10-09T15:27:33;11.70;40.10
18577;DHT22;9418;52.694;13.294;2023-10-09T15:30:00;11.70;40.20
18577;DHT22;9418;52.694;13.294;2023-10-09T15:32:28;11.70;38.50
18577;DHT22;9418;52.694;13.294;2023-10-09T15:34:55;11.70;39.50
18577;DHT22;9418;52.694;13.294;2023-10-09T15:37:22;11.60;38.00
18577;DHT22;9418;52.694;13.294;2023-10-09T15:39:49;11.60;38.30
18577;DHT22;9418;52.694;13.294;2023-10-09T15:42:16;11.60;38.10
18577;DHT22;9418;52.694;13.294;2023-10-09T15:44:42;11.60;39.30
18577;DHT22;9418;52.694;13.294;2023-10-09T15:47:13;11.60;37.20
18577;DHT22;9418;52.694;13.294;2023-10-09T15:49:42;11.50;43.20
18577;DHT22;9418;52.694;13.294;2023-10-09T15:52:09;11.50;40.60
18577;DHT22;9418;52.694;13.294;2023-10-09T15:54:39;11.50;38.60
18577;DHT22;9418;52.694;13.294;2023-10-09T15:57:08;11.50;35.70
18577;DHT22;9418;52.694;13.294;2023-10-09T15:59:35;11.50;34.30
18577;DHT22;9418;52.694;13.294;2023-10-09T16:02:02;11.40;34.50
18577;DHT22;9418;52.694;13.294;2023-10-09T16:04:30;11.40;31.20
18577;DHT22;9418;52.694;13.294;2023-10-09T16:07:00;11.40;26.10
18577;DHT22;9418;52.694;13.294;2023-10-09T16:09:30;11.40;29.40
18577;DHT22;9418;52.694;13.294;2023-10-09T16:12:03;11.40;30.10
18577;DHT22;9418;52.694;13.294;2023-10-09T16:14:30;11.40;27.50
18577;DHT22;9418;52.694;13.294;2023-10-09T16:16:56;11.30;26.80
18577;DHT22;9418;52.694;13.294;2023-10-09T16:19:23;11.30;27.60